Terminal Aerodrome Forecast
Issued by NWS Bismarck, ND

Home | Current Version | Previous Version | Graphics & Text | Print | Product List | Glossary On
Versions: 1 2 3 4 5 6 7 8 9 10 11 12 13 14 15 16 17 18
809
FTUS43 KBIS 210836 AAB
TAFBIS
TAF AMD
KBIS 210836Z 2109/2206 16009KT P6SM SCT015 BKN120
     FM211800 29005KT P6SM VCTS FEW070CB SCT200
     FM220000 33006KT P6SM FEW070 FEW200=

USA.gov is the U.S. government's official web portal to all federal, state and local government web resources and services.